Estación Meteorológica Peña el Pijo (Robertgarden) [ 12/16/19 01:00:35 CET ]

Fecha Hora Presion(HPa) Temp (°C) Humedad % Rocio (°C) Viento ( m/s) Direccion Lluvia 1Hora(mm) Lluvia 24H(mm) LLuvia Total(mm)
2019-Aug-14 01:01:36 1014.000 17.8 78 13.9         363.34
2019-Aug-14 02:01:36 1014.000 15.9 80 12.5         363.34
2019-Aug-14 03:02:01 1013.800 15.3 83 12.4         363.34
2019-Aug-14 04:01:44 1013.400 14.8 83 11.9         363.34
2019-Aug-14 05:01:44 1013.500 14.3 83 11.5         363.34
2019-Aug-14 06:08:06 1013.400 13.6 84 10.9         363.34
2019-Aug-14 07:02:04 1013.600 12.9 85 10.4         363.34
2019-Aug-14 08:01:30 1013.800 12.4 86 10.0         363.34
2019-Aug-14 09:01:27 1014.000 17.2 80 13.7         363.34
2019-Aug-14 10:01:42 1013.700 23.8 56 14.5         363.34
2019-Aug-14 11:01:44 1013.600 28.6 39 13.3         363.34
2019-Aug-14 12:01:39 1013.300 30.6 28 9.9         363.34
2019-Aug-14 13:01:32 1013.200 32.4 25 10.2         363.34
2019-Aug-14 14:01:21 1012.700 34.4 21 8.8         363.34
2019-Aug-14 15:01:36 1012.400 37.0 20 10.4         363.34
2019-Aug-14 16:01:14 1012.200 35.2 20 9.2         363.34
2019-Aug-14 17:01:41 1011.700 35.9 19 8.5 1.7 SW     363.34
2019-Aug-14 18:01:55 1011.900 33.6 31 14.1         363.34
2019-Aug-14 19:01:46 1012.000 31.1 36 14.2         363.34
2019-Aug-14 20:01:50 1012.300 27.9 41 13.4 1.4 NNW     363.34
2019-Aug-14 21:01:46 1012.600 25.6 45 12.7         363.34
2019-Aug-14 22:01:51 1013.100 23.3 50 12.3         363.34
2019-Aug-14 23:01:44 1013.700 20.6 56 11.5         363.34

Temperatura Máxima:37°    Temperatura Mínima:12°
Presión Máxima:1014.000 Hpa    Presión Mínima:1011.700 Hpa


Volver